Antakya, Turkey
Current Conditions -  °F | °C
As of 2:50 PM on Thursday 30 Oct 2014 (Local Time) from LTDA Reporting Station
Scattered Clouds Scattered Clouds  
Wind Chill: 18°   Ceiling: Unl
Heat Index: 18°   Visibility: 6mi
Dew Point: 15°   Wind: 9mph
Humidity: 83%   Direction: 20°NNE
Pressure: 29.94"   Gusts: NA
Location:  36.2°N, 36.15°E
Report Text: LTDA 301250Z 02008KT 9999 FEW025CB SCT030 18/15 Q1014
Loading
Personal Weather Stations






























Interactive Weather Map
Tropical Storm Tracking
New forecast layout! Learn more

10-Day Weather Forecast

Advertisements
Track Severe Weather on mobile